Time;durP1;ratioP1;P1;durP2;ratioP2;P2;SDS_P1;SDS_P2;PMS_P1;PMS_P2;Temp;Humidity;BMP_temperature;BMP_pressure;BME280_temperature;BME280_humidity;BME280_pressure;Samples;Min_cycle;Max_cycle;Signal;HPM_P1;HPM_P2
2021/07/16 00:00:25;;;;;;;;;;;;;;;16.05;66.31;99338.13;5053216;28;814;-63
2021/07/16 00:02:52;;;;;;;;;;;;;;;16.03;66.25;99335.03;5052636;28;888;-63
2021/07/16 00:05:19;;;;;;;;;;;;;;;16.12;65.14;99332.31;5035188;28;1213;-62
2021/07/16 00:07:45;;;;;;;;;;;;;;;16.20;64.61;99334.84;5053021;28;810;-62
2021/07/16 00:10:14;;;;;;;;;;;;;;;16.11;64.87;99343.94;5052979;28;830;-63
2021/07/16 00:12:41;;;;;;;;;;;;;;;15.99;65.75;99345.50;5052795;28;1002;-63
2021/07/16 00:15:09;;;;;;;;;;;;;;;15.93;66.58;99341.75;5052640;28;1188;-62
2021/07/16 00:17:35;;;;;;;;;;;;;;;15.84;67.88;99345.22;5052711;28;1914;-62
2021/07/16 00:20:03;;;;;;;;;;;;;;;15.75;68.95;99347.16;5052762;28;868;-62
2021/07/16 00:22:30;;;;;;;;;;;;;;;15.70;69.44;99346.47;5052673;28;865;-62
2021/07/16 00:24:57;;;;;;;;;;;;;;;15.78;69.66;99349.03;5052905;28;814;-62
2021/07/16 00:27:23;;;;;;;;;;;;;;;15.85;69.53;99351.56;5052629;28;878;-62
2021/07/16 00:29:51;;;;;;;;;;;;;;;15.89;69.52;99339.06;5052556;28;835;-62
2021/07/16 00:32:18;;;;;;;;;;;;;;;15.90;69.21;99343.41;5052616;28;842;-62
2021/07/16 00:34:45;;;;;;;;;;;;;;;15.94;68.60;99337.72;5052519;28;810;-62
2021/07/16 00:37:12;;;;;;;;;;;;;;;15.98;67.93;99332.81;5052386;28;1985;-62
2021/07/16 00:39:38;;;;;;;;;;;;;;;16.04;67.41;99333.78;5034727;28;815;-62
2021/07/16 00:42:06;;;;;;;;;;;;;;;16.05;66.92;99327.00;5052335;28;956;-62
2021/07/16 00:44:34;;;;;;;;;;;;;;;16.05;66.69;99329.00;5052424;28;814;-62
2021/07/16 00:47:01;;;;;;;;;;;;;;;16.05;66.54;99327.00;5052237;28;913;-62
2021/07/16 00:49:28;;;;;;;;;;;;;;;16.07;67.02;99334.91;5052162;28;806;-62
2021/07/16 00:51:55;;;;;;;;;;;;;;;16.06;67.86;99339.69;5052174;28;811;-62
2021/07/16 00:54:22;;;;;;;;;;;;;;;16.04;68.87;99336.56;5052012;28;803;-62
2021/07/16 00:56:48;;;;;;;;;;;;;;;16.00;69.25;99333.16;5052001;28;1882;-62
2021/07/16 00:59:16;;;;;;;;;;;;;;;15.96;69.79;99335.28;5051961;28;865;-62
2021/07/16 01:01:45;;;;;;;;;;;;;;;15.95;70.02;99335.72;5051974;28;862;-62
2021/07/16 01:04:13;;;;;;;;;;;;;;;15.91;70.03;99328.25;5052187;28;807;-62
2021/07/16 01:06:38;;;;;;;;;;;;;;;15.88;70.62;99329.16;5051870;28;994;-62
2021/07/16 01:09:05;;;;;;;;;;;;;;;15.87;71.24;99332.38;5051792;28;859;-62
2021/07/16 01:11:32;;;;;;;;;;;;;;;15.89;71.55;99324.34;5051877;28;803;-62
2021/07/16 01:13:59;;;;;;;;;;;;;;;15.89;71.74;99322.34;5051580;28;1375;-62
2021/07/16 01:16:26;;;;;;;;;;;;;;;15.87;71.90;99315.66;5051188;28;1914;-62
2021/07/16 01:18:53;;;;;;;;;;;;;;;15.87;71.91;99310.91;5051715;28;814;-62
2021/07/16 01:21:21;;;;;;;;;;;;;;;15.82;71.87;99308.66;5051666;28;822;-62
2021/07/16 01:23:48;;;;;;;;;;;;;;;15.78;72.04;99310.03;5051527;28;878;-62
2021/07/16 01:26:14;;;;;;;;;;;;;;;15.76;72.36;99315.25;5051591;28;941;-62
2021/07/16 01:28:41;;;;;;;;;;;;;;;15.76;72.12;99309.69;5051600;28;882;-62
2021/07/16 01:31:08;;;;;;;;;;;;;;;15.75;71.83;99308.16;5033730;28;1477;-62
2021/07/16 01:33:35;;;;;;;;;;;;;;;15.74;71.50;99309.34;5051562;28;849;-62
2021/07/16 01:36:02;;;;;;;;;;;;;;;15.74;71.61;99309.34;5051417;28;818;-62
2021/07/16 01:38:28;;;;;;;;;;;;;;;15.71;71.49;99297.88;5051464;28;1885;-62
2021/07/16 01:40:54;;;;;;;;;;;;;;;15.71;71.27;99300.66;5051467;28;799;-62
2021/07/16 01:43:21;;;;;;;;;;;;;;;15.73;70.89;99305.03;5051509;28;854;-62
2021/07/16 01:45:48;;;;;;;;;;;;;;;15.75;70.37;99302.56;5051503;28;814;-62
2021/07/16 01:48:16;;;;;;;;;;;;;;;15.76;70.19;99296.53;5051407;28;802;-62
2021/07/16 01:50:45;;;;;;;;;;;;;;;15.76;69.84;99301.31;5051341;28;822;-62
2021/07/16 01:53:14;;;;;;;;;;;;;;;15.67;69.71;99297.19;5051269;28;866;-62
2021/07/16 01:55:41;;;;;;;;;;;;;;;15.45;70.26;99290.81;5051400;28;874;-63
2021/07/16 01:58:08;;;;;;;;;;;;;;;15.26;70.51;99301.72;5051469;28;1917;-63
2021/07/16 02:00:37;;;;;;;;;;;;;;;15.17;70.43;99298.03;5051309;28;799;-62
2021/07/16 02:03:05;;;;;;;;;;;;;;;15.12;70.57;99304.94;5051293;28;795;-63
2021/07/16 02:05:33;;;;;;;;;;;;;;;15.09;70.60;99303.06;5051401;28;849;-63
2021/07/16 02:08:06;;;;;;;;;;;;;;;15.04;70.79;99300.81;5051177;28;873;-63
2021/07/16 02:10:33;;;;;;;;;;;;;;;14.97;70.81;99307.41;5051984;28;814;-63
2021/07/16 02:13:00;;;;;;;;;;;;;;;14.95;70.97;99301.50;5051448;28;946;-62
2021/07/16 02:15:29;;;;;;;;;;;;;;;14.98;70.70;99303.41;5051130;28;1376;-62
2021/07/16 02:17:55;;;;;;;;;;;;;;;15.04;70.47;99309.19;5051083;28;1922;-62
2021/07/16 02:20:21;;;;;;;;;;;;;;;14.97;70.53;99312.19;5051158;28;822;-62
2021/07/16 02:22:47;;;;;;;;;;;;;;;14.87;70.78;99320.44;5051695;28;842;-63
2021/07/16 02:25:14;;;;;;;;;;;;;;;14.86;71.19;99307.72;5051395;28;838;-62
2021/07/16 02:27:43;;;;;;;;;;;;;;;14.96;71.31;99299.53;5054919;28;791;-62
2021/07/16 02:30:10;;;;;;;;;;;;;;;15.05;70.88;99303.19;5055017;28;928;-62
2021/07/16 02:32:36;;;;;;;;;;;;;;;15.17;70.58;99307.19;5055019;28;818;-62
2021/07/16 02:35:04;;;;;;;;;;;;;;;15.25;70.64;99304.94;5055008;28;830;-62
2021/07/16 02:37:31;;;;;;;;;;;;;;;15.35;70.19;99297.50;5054938;28;1897;-62
2021/07/16 02:39:58;;;;;;;;;;;;;;;15.39;69.82;99301.72;5054818;28;818;-62
2021/07/16 02:42:25;;;;;;;;;;;;;;;15.41;69.93;99304.06;5054937;28;882;-62
2021/07/16 02:44:52;;;;;;;;;;;;;;;15.39;69.96;99300.94;5054899;28;889;-62
2021/07/16 02:47:18;;;;;;;;;;;;;;;15.43;70.34;99299.59;5054940;28;815;-62
2021/07/16 02:49:45;;;;;;;;;;;;;;;15.58;69.48;99308.25;5054762;28;823;-62
2021/07/16 02:52:11;;;;;;;;;;;;;;;15.77;69.04;99314.03;5054649;28;874;-62
2021/07/16 02:54:37;;;;;;;;;;;;;;;15.90;68.63;99303.63;5054326;28;837;-62
2021/07/16 02:57:04;;;;;;;;;;;;;;;15.97;68.38;99308.19;5054251;28;1967;-62
2021/07/16 02:59:31;;;;;;;;;;;;;;;15.99;68.62;99303.69;5054310;28;894;-62
2021/07/16 03:01:59;;;;;;;;;;;;;;;16.00;68.31;99308.06;5054180;28;1040;-62
2021/07/16 03:04:26;;;;;;;;;;;;;;;15.96;68.22;99301.84;5054867;28;778;-62
2021/07/16 03:06:53;;;;;;;;;;;;;;;15.93;68.63;99313.88;5054179;28;810;-62
2021/07/16 03:09:19;;;;;;;;;;;;;;;15.97;69.01;99317.31;5054150;28;847;-62
2021/07/16 03:11:46;;;;;;;;;;;;;;;15.96;70.10;99318.56;5053997;28;803;-62
2021/07/16 03:14:13;;;;;;;;;;;;;;;15.97;70.57;99313.75;5053912;28;1547;-61
2021/07/16 03:16:40;;;;;;;;;;;;;;;16.00;70.65;99321.19;5053869;28;1918;-59
2021/07/16 03:19:07;;;;;;;;;;;;;;;16.01;71.03;99317.19;5053835;28;859;-59
2021/07/16 03:21:34;;;;;;;;;;;;;;;16.03;71.26;99320.31;5053754;28;822;-59
2021/07/16 03:24:01;;;;;;;;;;;;;;;16.01;71.41;99320.75;5053801;28;878;-59
2021/07/16 03:26:28;;;;;;;;;;;;;;;16.01;71.28;99312.41;5053758;28;853;-59
2021/07/16 03:28:55;;;;;;;;;;;;;;;16.05;71.10;99310.25;5053695;28;819;-59
2021/07/16 03:31:22;;;;;;;;;;;;;;;16.07;70.82;99307.81;5053613;28;815;-59
2021/07/16 03:33:48;;;;;;;;;;;;;;;16.10;70.75;99306.13;5053681;28;866;-59
2021/07/16 03:36:14;;;;;;;;;;;;;;;16.27;70.54;99315.06;5053553;28;850;-59
2021/07/16 03:38:43;;;;;;;;;;;;;;;16.53;69.75;99310.91;5052693;28;1882;-59
2021/07/16 03:41:10;;;;;;;;;;;;;;;16.76;69.44;99310.91;5053386;28;906;-59
2021/07/16 03:43:37;;;;;;;;;;;;;;;16.98;69.32;99310.88;5053465;28;877;-59
2021/07/16 03:46:04;;;;;;;;;;;;;;;17.26;68.77;99317.34;5053380;28;803;-59
2021/07/16 03:48:32;;;;;;;;;;;;;;;17.52;68.91;99326.28;5035436;28;1275;-59
2021/07/16 03:50:59;;;;;;;;;;;;;;;17.93;67.55;99313.03;5053892;28;834;-59
2021/07/16 03:53:27;;;;;;;;;;;;;;;18.13;66.85;99318.91;5035854;28;885;-59
2021/07/16 03:55:53;;;;;;;;;;;;;;;18.13;66.49;99327.31;5053469;28;843;-59
2021/07/16 03:58:20;;;;;;;;;;;;;;;18.12;66.82;99322.19;5053603;28;1945;-59
2021/07/16 04:00:47;;;;;;;;;;;;;;;18.16;66.93;99331.22;5053559;28;808;-59
2021/07/16 04:03:16;;;;;;;;;;;;;;;18.22;66.83;99332.16;5035433;28;851;-59
2021/07/16 04:05:41;;;;;;;;;;;;;;;18.30;66.98;99335.38;5053272;28;984;-59
2021/07/16 04:08:10;;;;;;;;;;;;;;;18.37;66.89;99332.31;5053443;28;818;-59
2021/07/16 04:10:38;;;;;;;;;;;;;;;18.55;66.79;99328.69;5052955;28;957;-59
2021/07/16 04:13:09;;;;;;;;;;;;;;;18.73;66.37;99334.25;5052987;28;897;-59
2021/07/16 04:15:36;;;;;;;;;;;;;;;18.80;66.11;99322.00;5052537;28;1266;-59
2021/07/16 04:18:04;;;;;;;;;;;;;;;18.88;65.91;99326.00;5052888;28;1914;-59
2021/07/16 04:20:33;;;;;;;;;;;;;;;18.99;65.77;99319.91;5052613;28;852;-59
2021/07/16 04:23:00;;;;;;;;;;;;;;;19.13;65.43;99329.66;5052726;28;850;-59
2021/07/16 04:25:27;;;;;;;;;;;;;;;19.32;64.87;99336.72;5052681;28;815;-59
2021/07/16 04:27:56;;;;;;;;;;;;;;;19.72;63.19;99334.84;5052649;28;854;-59
2021/07/16 04:30:23;;;;;;;;;;;;;;;20.26;61.18;99332.09;5052610;28;798;-59
2021/07/16 04:32:52;;;;;;;;;;;;;;;20.77;59.16;99328.22;5052409;28;953;-59
2021/07/16 04:35:19;;;;;;;;;;;;;;;21.18;57.81;99342.41;5052497;28;807;-59
2021/07/16 04:37:46;;;;;;;;;;;;;;;21.73;56.61;99335.31;5052409;28;1941;-59
2021/07/16 04:40:18;;;;;;;;;;;;;;;22.21;55.78;99332.06;5052360;28;831;-59
2021/07/16 04:42:45;;;;;;;;;;;;;;;22.41;55.04;99337.69;5052261;28;883;-59
2021/07/16 04:45:13;;;;;;;;;;;;;;;22.32;55.60;99339.88;5052254;28;803;-59
2021/07/16 04:47:40;;;;;;;;;;;;;;;22.18;55.25;99331.00;5052199;28;854;-59
2021/07/16 04:50:07;;;;;;;;;;;;;;;22.05;55.58;99333.41;5052257;28;889;-59
2021/07/16 04:52:40;;;;;;;;;;;;;;;22.04;56.47;99334.69;5052153;28;870;-59
2021/07/16 04:55:07;;;;;;;;;;;;;;;22.15;57.39;99340.44;5052066;28;866;-59
2021/07/16 04:57:34;;;;;;;;;;;;;;;22.36;57.63;99334.81;5052085;28;1945;-59
2021/07/16 05:00:03;;;;;;;;;;;;;;;22.58;57.49;99339.91;5052048;28;815;-59
2021/07/16 05:02:30;;;;;;;;;;;;;;;22.82;56.82;99339.63;5052116;28;799;-59
2021/07/16 05:04:56;;;;;;;;;;;;;;;23.15;56.85;99338.38;5052031;28;814;-59
2021/07/16 05:15:08;;;;;;;;;;;;;;;24.59;54.16;99338.84;5051732;22;1667;-59
2021/07/16 05:17:35;;;;;;;;;;;;;;;25.13;53.35;99351.22;5051972;28;1922;-59
2021/07/16 05:20:06;;;;;;;;;;;;;;;25.87;52.25;99342.09;5051980;28;1084;-59
2021/07/16 05:22:33;;;;;;;;;;;;;;;26.63;50.95;99353.41;5051583;28;834;-59
2021/07/16 05:25:00;;;;;;;;;;;;;;;27.28;49.77;99346.19;5051599;28;850;-59
2021/07/16 05:27:26;;;;;;;;;;;;;;;27.78;48.89;99346.97;5051816;28;922;-59
2021/07/16 05:29:53;;;;;;;;;;;;;;;28.02;48.16;99346.97;5051581;28;862;-59
2021/07/16 05:32:20;;;;;;;;;;;;;;;28.39;47.50;99348.28;5033840;28;1449;-59
2021/07/16 05:34:47;;;;;;;;;;;;;;;29.20;45.87;99338.06;5051684;28;802;-59
2021/07/16 05:37:14;;;;;;;;;;;;;;;30.14;43.56;99333.94;5051439;28;1906;-59
2021/07/16 05:39:39;;;;;;;;;;;;;;;30.97;41.55;99332.59;5051602;28;822;-59
2021/07/16 05:42:06;;;;;;;;;;;;;;;31.61;40.41;99344.75;5051695;28;929;-59
2021/07/16 05:44:32;;;;;;;;;;;;;;;32.24;38.64;99339.59;5051855;28;905;-59
2021/07/16 05:47:00;;;;;;;;;;;;;;;32.80;37.39;99336.31;5051927;28;850;-59
2021/07/16 05:49:27;;;;;;;;;;;;;;;32.86;37.51;99328.28;5051857;28;810;-59
2021/07/16 05:51:54;;;;;;;;;;;;;;;32.93;37.16;99336.91;5052058;28;860;-59
2021/07/16 05:54:20;;;;;;;;;;;;;;;33.29;37.41;99341.72;5051814;28;885;-59
2021/07/16 05:56:47;;;;;;;;;;;;;;;33.76;36.90;99340.34;5051983;28;1863;-58
2021/07/16 05:59:14;;;;;;;;;;;;;;;34.48;35.85;99346.00;5051348;28;881;-59
2021/07/16 06:01:40;;;;;;;;;;;;;;;34.95;35.11;99333.69;5053765;28;787;-59
2021/07/16 06:04:09;;;;;;;;;;;;;;;35.30;33.57;99339.53;5055338;28;814;-59
2021/07/16 06:06:36;;;;;;;;;;;;;;;35.40;33.31;99338.88;5055781;28;826;-59
2021/07/16 06:09:04;;;;;;;;;;;;;;;35.76;32.46;99338.34;5055635;28;810;-59
2021/07/16 06:11:32;;;;;;;;;;;;;;;36.09;32.29;99329.56;5055485;28;850;-59
2021/07/16 06:13:59;;;;;;;;;;;;;;;36.21;31.97;99330.59;5055037;28;1268;-59
2021/07/16 06:16:26;;;;;;;;;;;;;;;35.96;32.24;99333.53;5054914;28;1910;-59
2021/07/16 06:18:53;;;;;;;;;;;;;;;35.93;32.09;99337.59;5055443;28;857;-59
2021/07/16 06:21:19;;;;;;;;;;;;;;;35.73;32.17;99328.78;5054995;28;838;-59
2021/07/16 06:23:46;;;;;;;;;;;;;;;35.92;32.46;99331.06;5055181;28;814;-59
2021/07/16 06:26:13;;;;;;;;;;;;;;;35.94;32.04;99327.63;5054981;28;897;-59
2021/07/16 06:28:39;;;;;;;;;;;;;;;36.38;31.29;99330.53;5055085;28;870;-59
2021/07/16 06:31:06;;;;;;;;;;;;;;;37.03;30.82;99333.44;5055184;28;810;-59
2021/07/16 06:33:32;;;;;;;;;;;;;;;37.23;30.04;99322.75;5055384;28;864;-59
2021/07/16 06:35:58;;;;;;;;;;;;;;;37.33;29.40;99318.53;5055080;28;849;-59
2021/07/16 06:38:25;;;;;;;;;;;;;;;37.14;29.21;99324.25;5054870;28;1889;-59
2021/07/16 06:40:51;;;;;;;;;;;;;;;36.90;29.73;99323.09;5054702;28;823;-59
2021/07/16 06:43:18;;;;;;;;;;;;;;;37.26;29.22;99305.03;5054512;28;877;-59
2021/07/16 06:45:45;;;;;;;;;;;;;;;37.07;29.05;99317.25;5054517;28;1033;-59
2021/07/16 06:48:12;;;;;;;;;;;;;;;37.09;29.03;99308.78;5054533;28;894;-59
2021/07/16 06:50:39;;;;;;;;;;;;;;;37.46;29.22;99311.59;5054495;28;822;-59
2021/07/16 06:53:05;;;;;;;;;;;;;;;37.35;28.25;99315.06;5036520;28;1149;-59
2021/07/16 06:55:32;;;;;;;;;;;;;;;37.40;28.88;99319.75;5054384;28;846;-59
2021/07/16 06:57:58;;;;;;;;;;;;;;;37.64;28.65;99318.03;5054285;28;1893;-59
2021/07/16 07:00:25;;;;;;;;;;;;;;;38.12;27.67;99319.41;5054355;28;877;-59
2021/07/16 07:02:51;;;;;;;;;;;;;;;38.50;27.11;99317.84;5054238;28;799;-59
2021/07/16 07:05:21;;;;;;;;;;;;;;;38.83;27.09;99323.78;5054218;28;837;-59
2021/07/16 07:07:48;;;;;;;;;;;;;;;39.12;26.86;99320.78;5054173;28;953;-59
2021/07/16 07:10:15;;;;;;;;;;;;;;;39.12;25.97;99320.78;5054118;28;881;-59
2021/07/16 07:12:42;;;;;;;;;;;;;;;38.69;26.09;99311.25;5052671;28;903;-59
2021/07/16 07:15:09;;;;;;;;;;;;;;;39.02;25.87;99316.44;5053688;28;1367;-59
2021/07/16 07:17:36;;;;;;;;;;;;;;;39.28;24.99;99308.81;5053951;28;1914;-59
2021/07/16 07:20:04;;;;;;;;;;;;;;;38.73;25.45;99312.28;5054098;28;925;-59
2021/07/16 07:22:30;;;;;;;;;;;;;;;38.93;25.60;99312.19;5053933;28;821;-59
2021/07/16 07:24:57;;;;;;;;;;;;;;;39.13;24.99;99307.84;5053877;28;830;-59
2021/07/16 07:27:24;;;;;;;;;;;;;;;39.06;24.75;99308.81;5053841;28;823;-59
2021/07/16 07:29:51;;;;;;;;;;;;;;;38.92;25.52;99314.34;5035833;28;941;-59
2021/07/16 07:32:19;;;;;;;;;;;;;;;38.90;26.15;99307.63;5053759;28;861;-59
2021/07/16 07:34:45;;;;;;;;;;;;;;;39.02;26.22;99304.88;5053627;28;865;-59
2021/07/16 07:37:11;;;;;;;;;;;;;;;39.53;26.99;99314.91;5053568;28;1953;-59
2021/07/16 07:39:38;;;;;;;;;;;;;;;39.77;25.91;99315.78;5053577;28;838;-59
2021/07/16 07:42:05;;;;;;;;;;;;;;;39.91;25.64;99306.59;5053310;28;882;-59
2021/07/16 07:44:32;;;;;;;;;;;;;;;39.87;25.10;99312.84;5053639;28;826;-59
2021/07/16 07:47:00;;;;;;;;;;;;;;;39.44;25.95;99317.91;5053408;28;885;-59
2021/07/16 07:49:28;;;;;;;;;;;;;;;39.14;26.76;99309.38;5053315;28;946;-59
2021/07/16 07:51:55;;;;;;;;;;;;;;;39.26;25.60;99315.22;5053334;28;896;-59
2021/07/16 07:54:22;;;;;;;;;;;;;;;39.40;25.78;99318.38;5053320;28;861;-59
2021/07/16 07:56:49;;;;;;;;;;;;;;;39.44;26.00;99312.88;5053154;28;1890;-59
2021/07/16 07:59:16;;;;;;;;;;;;;;;39.59;26.05;99317.47;5035386;28;917;-59
2021/07/16 08:01:42;;;;;;;;;;;;;;;39.87;24.84;99315.00;5053077;28;957;-59
2021/07/16 08:04:09;;;;;;;;;;;;;;;39.85;26.49;99311.97;5053427;28;814;-59
2021/07/16 08:06:36;;;;;;;;;;;;;;;39.84;25.87;99308.31;5053019;28;799;-59
2021/07/16 08:09:03;;;;;;;;;;;;;;;39.23;25.82;99309.94;5052911;28;898;-59
2021/07/16 08:11:30;;;;;;;;;;;;;;;38.53;26.69;99305.81;5052754;28;863;-59
2021/07/16 08:13:58;;;;;;;;;;;;;;;38.45;26.19;99301.53;5052645;28;1400;-59
2021/07/16 08:16:24;;;;;;;;;;;;;;;38.79;26.07;99306.94;5052935;28;794;-59
2021/07/16 08:18:51;;;;;;;;;;;;;;;38.90;25.08;99302.63;5052702;28;1906;-59
2021/07/16 08:21:22;;;;;;;;;;;;;;;39.10;25.89;99303.31;5052728;28;854;-59
2021/07/16 08:23:49;;;;;;;;;;;;;;;39.54;25.50;99304.88;5052523;28;946;-59
2021/07/16 08:26:18;;;;;;;;;;;;;;;39.68;25.18;99298.53;5052595;28;977;-59
2021/07/16 08:28:46;;;;;;;;;;;;;;;39.77;24.01;99294.78;5052538;28;906;-59
2021/07/16 08:31:12;;;;;;;;;;;;;;;40.24;23.13;99292.09;5052546;28;790;-59
2021/07/16 08:33:39;;;;;;;;;;;;;;;40.67;24.71;99291.94;5052602;28;823;-59
2021/07/16 08:36:06;;;;;;;;;;;;;;;40.64;23.71;99289.53;5034526;28;1180;-59
2021/07/16 08:38:32;;;;;;;;;;;;;;;40.57;23.68;99297.09;5052446;28;1886;-59
2021/07/16 08:40:59;;;;;;;;;;;;;;;40.27;23.04;99290.84;5052252;28;814;-59
2021/07/16 08:43:27;;;;;;;;;;;;;;;39.91;23.53;99286.34;5052331;28;918;-59
2021/07/16 08:45:54;;;;;;;;;;;;;;;39.66;23.54;99289.72;5052151;28;1112;-59
2021/07/16 08:48:20;;;;;;;;;;;;;;;39.12;23.69;99285.38;5052350;28;968;-59
2021/07/16 08:50:47;;;;;;;;;;;;;;;39.10;24.72;99279.44;5052251;28;833;-59
2021/07/16 08:53:13;;;;;;;;;;;;;;;39.15;24.23;99273.31;5052393;28;886;-59
2021/07/16 08:55:42;;;;;;;;;;;;;;;39.39;23.78;99261.88;5052286;28;799;-59
2021/07/16 08:58:10;;;;;;;;;;;;;;;38.99;24.10;99267.19;5052012;28;1941;-59
2021/07/16 09:00:37;;;;;;;;;;;;;;;38.97;25.07;99261.28;5052037;28;1000;-59
2021/07/16 09:03:05;;;;;;;;;;;;;;;39.21;25.14;99265.06;5052012;28;845;-59
2021/07/16 09:05:40;;;;;;;;;;;;;;;39.37;25.36;99261.78;5051988;28;944;-59
2021/07/16 09:08:26;;;;;;;;;;;;;;;38.88;22.91;99261.28;5051836;28;858;-59
2021/07/16 09:10:54;;;;;;;;;;;;;;;38.20;23.75;99265.94;5050834;28;1640;-59
2021/07/16 09:13:21;;;;;;;;;;;;;;;38.08;23.82;99256.38;5052178;28;1012;-59
2021/07/16 09:15:49;;;;;;;;;;;;;;;38.21;23.37;99258.03;5051727;28;1427;-59
2021/07/16 09:18:21;;;;;;;;;;;;;;;38.26;24.65;99259.84;5051577;28;2252;-59
2021/07/16 09:21:05;;;;;;;;;;;;;;;38.13;24.92;99258.22;5051707;28;866;-59
2021/07/16 09:23:35;;;;;;;;;;;;;;;37.86;24.31;99243.22;5051598;28;886;-59
2021/07/16 09:26:15;;;;;;;;;;;;;;;37.44;24.32;99245.16;5051656;28;818;-59
2021/07/16 09:28:46;;;;;;;;;;;;;;;37.21;24.97;99253.47;5051581;28;1049;-59
2021/07/16 09:31:12;;;;;;;;;;;;;;;37.12;25.36;99243.44;5051584;28;826;-59
2021/07/16 09:33:42;;;;;;;;;;;;;;;36.58;23.14;99250.81;5051536;28;913;-59
2021/07/16 09:36:09;;;;;;;;;;;;;;;36.24;23.28;99240.22;5050873;28;814;-59
2021/07/16 09:38:36;;;;;;;;;;;;;;;36.01;25.68;99245.50;5051317;28;1951;-59
2021/07/16 09:41:06;;;;;;;;;;;;;;;36.04;23.38;99238.53;5051405;28;942;-59
2021/07/16 09:43:32;;;;;;;;;;;;;;;35.74;24.36;99243.31;5051439;28;886;-59
2021/07/16 09:46:04;;;;;;;;;;;;;;;35.76;23.88;99240.63;5051425;28;877;-59
2021/07/16 09:48:39;;;;;;;;;;;;;;;35.78;25.42;99235.81;5051460;28;798;-59
2021/07/16 09:51:20;;;;;;;;;;;;;;;35.71;26.56;99230.91;5051378;28;869;-59
2021/07/16 09:53:51;;;;;;;;;;;;;;;35.32;25.96;99233.44;5051225;28;882;-59
2021/07/16 09:56:19;;;;;;;;;;;;;;;35.18;26.99;99230.13;5051339;28;1195;-59
2021/07/16 09:58:46;;;;;;;;;;;;;;;35.36;28.14;99228.03;5051135;28;1951;-59
2021/07/16 10:01:12;;;;;;;;;;;;;;;35.23;26.41;99228.38;5051415;28;881;-59
2021/07/16 10:03:40;;;;;;;;;;;;;;;34.75;26.36;99225.72;5051132;28;946;-59
2021/07/16 10:06:11;;;;;;;;;;;;;;;34.33;26.21;99227.16;5051297;28;815;-59
2021/07/16 10:08:38;;;;;;;;;;;;;;;34.09;28.07;99233.56;5051137;28;799;-59
2021/07/16 10:11:06;;;;;;;;;;;;;;;34.17;28.56;99229.34;5051132;28;872;-59
2021/07/16 10:13:34;;;;;;;;;;;;;;;34.19;28.15;99228.03;5051001;28;1443;-60
2021/07/16 10:16:02;;;;;;;;;;;;;;;34.27;29.01;99228.72;5051143;28;806;-59
2021/07/16 10:18:29;;;;;;;;;;;;;;;34.16;28.23;99224.97;5051066;28;1969;-59
2021/07/16 10:20:58;;;;;;;;;;;;;;;34.13;28.77;99226.13;5051014;28;925;-59
2021/07/16 10:23:24;;;;;;;;;;;;;;;34.06;27.48;99226.16;5051031;28;885;-59
2021/07/16 10:25:51;;;;;;;;;;;;;;;33.92;28.46;99211.31;5051308;28;795;-59
2021/07/16 10:28:32;;;;;;;;;;;;;;;33.92;29.40;99220.66;5051048;28;810;-59
2021/07/16 10:30:59;;;;;;;;;;;;;;;33.93;28.16;99224.31;5051008;28;786;-59
2021/07/16 10:33:36;;;;;;;;;;;;;;;33.99;27.79;99215.47;5050917;28;838;-59
2021/07/16 10:36:03;;;;;;;;;;;;;;;34.14;28.72;99213.31;5050955;28;833;-60
2021/07/16 10:38:32;;;;;;;;;;;;;;;34.26;28.42;99210.75;5050767;28;1890;-58
2021/07/16 10:40:59;;;;;;;;;;;;;;;34.22;27.43;99206.78;5051487;28;795;-59
2021/07/16 10:43:27;;;;;;;;;;;;;;;34.28;29.04;99222.41;5051584;28;818;-59
2021/07/16 10:45:58;;;;;;;;;;;;;;;34.30;28.11;99219.72;5051179;28;881;-59
2021/07/16 10:48:31;;;;;;;;;;;;;;;34.17;28.76;99211.38;5053811;28;947;-59
2021/07/16 10:50:58;;;;;;;;;;;;;;;34.12;30.11;99212.38;5054560;28;830;-59
2021/07/16 10:53:28;;;;;;;;;;;;;;;34.14;30.07;99203.94;5054438;28;865;-60
2021/07/16 10:55:55;;;;;;;;;;;;;;;34.07;28.31;99202.63;5054717;28;885;-59
2021/07/16 10:58:43;;;;;;;;;;;;;;;34.11;28.29;99185.03;5054380;28;1890;-59
2021/07/16 11:01:11;;;;;;;;;;;;;;;33.98;29.73;99188.91;5054362;28;807;-60
2021/07/16 11:03:39;;;;;;;;;;;;;;;33.88;30.26;99200.22;5054218;28;904;-59
2021/07/16 11:06:07;;;;;;;;;;;;;;;33.86;29.77;99205.78;5054310;28;826;-59
2021/07/16 11:08:37;;;;;;;;;;;;;;;33.95;29.09;99199.44;5054315;28;877;-59
2021/07/16 11:11:09;;;;;;;;;;;;;;;34.10;31.34;99195.72;5054337;28;1008;-59
2021/07/16 11:13:37;;;;;;;;;;;;;;;34.17;29.73;99199.91;5053893;28;1307;-59
2021/07/16 11:16:27;;;;;;;;;;;;;;;34.11;31.13;99197.25;5054127;28;873;-59
2021/07/16 11:18:54;;;;;;;;;;;;;;;34.08;29.02;99197.66;5053761;28;1906;-60
2021/07/16 11:21:41;;;;;;;;;;;;;;;34.16;29.71;99201.25;5054009;28;901;-59
2021/07/16 11:24:08;;;;;;;;;;;;;;;34.46;30.14;99199.53;5053916;28;822;-59
2021/07/16 11:26:46;;;;;;;;;;;;;;;34.63;29.56;99196.75;5053906;28;869;-59
2021/07/16 11:29:13;;;;;;;;;;;;;;;34.64;27.57;99189.66;5054004;28;885;-60
2021/07/16 11:31:40;;;;;;;;;;;;;;;34.62;28.55;99195.19;5053708;28;934;-60
2021/07/16 11:34:12;;;;;;;;;;;;;;;34.72;28.57;99184.63;5053708;28;830;-59
2021/07/16 11:36:58;;;;;;;;;;;;;;;34.85;28.33;99186.41;5053865;28;1889;-59
2021/07/16 11:39:32;;;;;;;;;;;;;;;35.10;29.08;99188.44;5053457;28;1934;-59
2021/07/16 11:41:59;;;;;;;;;;;;;;;35.21;27.17;99181.47;5053604;28;794;-60
2021/07/16 11:44:27;;;;;;;;;;;;;;;35.18;26.67;99183.41;5053718;28;935;-60
2021/07/16 11:46:55;;;;;;;;;;;;;;;35.05;25.51;99184.47;5053550;28;846;-59
2021/07/16 11:49:26;;;;;;;;;;;;;;;35.03;25.87;99184.31;5053502;28;826;-59
2021/07/16 11:52:00;;;;;;;;;;;;;;;35.21;25.68;99178.59;5053242;28;902;-59
2021/07/16 11:54:28;;;;;;;;;;;;;;;35.46;27.36;99178.50;5053356;28;971;-59
2021/07/16 11:56:55;;;;;;;;;;;;;;;35.73;24.66;99178.59;5053181;28;1973;-57
2021/07/16 11:59:23;;;;;;;;;;;;;;;35.66;25.15;99188.84;5052482;28;933;-59
2021/07/16 12:02:05;;;;;;;;;;;;;;;35.60;25.82;99171.06;5053564;28;889;-58
2021/07/16 12:04:32;;;;;;;;;;;;;;;35.55;25.99;99177.84;5053084;28;915;-59
2021/07/16 12:06:59;;;;;;;;;;;;;;;35.84;25.91;99186.66;5053073;28;826;-59
2021/07/16 12:09:36;;;;;;;;;;;;;;;35.96;25.06;99172.53;5053022;28;811;-57
2021/07/16 12:12:08;;;;;;;;;;;;;;;35.96;25.99;99170.41;5052902;28;854;-59
2021/07/16 12:14:47;;;;;;;;;;;;;;;35.95;24.55;99171.00;5052669;28;1270;-59
2021/07/16 12:17:15;;;;;;;;;;;;;;;36.23;25.48;99169.63;5053010;28;1975;-60
2021/07/16 12:19:43;;;;;;;;;;;;;;;36.23;24.39;99163.13;5035272;28;826;-60
2021/07/16 12:22:11;;;;;;;;;;;;;;;36.36;25.18;99171.34;5053157;28;806;-59
2021/07/16 12:24:39;;;;;;;;;;;;;;;36.45;24.36;99169.91;5052943;28;830;-58
2021/07/16 12:27:07;;;;;;;;;;;;;;;36.61;24.72;99165.41;5052682;28;892;-59
2021/07/16 12:29:33;;;;;;;;;;;;;;;36.94;24.10;99167.94;5052681;28;878;-59
2021/07/16 12:32:00;;;;;;;;;;;;;;;37.36;24.54;99160.97;5052675;28;834;-60
2021/07/16 12:34:27;;;;;;;;;;;;;;;37.46;23.22;99161.72;5052528;28;869;-59
2021/07/16 12:37:07;;;;;;;;;;;;;;;37.44;22.94;99155.81;5052409;28;1911;-60
2021/07/16 12:39:35;;;;;;;;;;;;;;;37.52;23.42;99152.78;5052678;28;949;-60
2021/07/16 12:42:10;;;;;;;;;;;;;;;37.51;20.89;99157.03;5052291;28;923;-57
2021/07/16 12:44:37;;;;;;;;;;;;;;;37.51;21.71;99142.63;5052429;28;823;-58
2021/07/16 12:47:04;;;;;;;;;;;;;;;37.37;20.50;99145.97;5052264;28;917;-58
2021/07/16 12:49:31;;;;;;;;;;;;;;;37.43;20.66;99145.69;5052296;28;865;-58
2021/07/16 12:52:09;;;;;;;;;;;;;;;37.32;21.17;99147.06;5052238;28;909;-58
2021/07/16 12:54:37;;;;;;;;;;;;;;;37.44;21.44;99134.91;5052096;28;858;-58
2021/07/16 12:57:14;;;;;;;;;;;;;;;37.08;21.60;99137.31;5052004;28;1941;-58
2021/07/16 12:59:50;;;;;;;;;;;;;;;37.16;21.60;99143.69;5052257;28;822;-58
2021/07/16 13:02:21;;;;;;;;;;;;;;;37.22;21.68;99137.66;5052074;28;846;-58
2021/07/16 13:04:49;;;;;;;;;;;;;;;37.21;21.95;99133.25;5052014;28;889;-58
2021/07/16 13:07:26;;;;;;;;;;;;;;;37.52;21.29;99138.38;5051765;28;865;-58
2021/07/16 13:09:53;;;;;;;;;;;;;;;37.64;21.18;99132.75;5051706;28;794;-58
2021/07/16 13:12:21;;;;;;;;;;;;;;;37.65;21.24;99129.28;5051227;28;889;-58
2021/07/16 13:14:55;;;;;;;;;;;;;;;37.52;20.82;99126.84;5030434;28;1240;-58
2021/07/16 13:17:27;;;;;;;;;;;;;;;37.22;20.41;99126.13;5031785;28;1973;-58